Progresso, New Mexico
Current Conditions -  °F | °C
As of 9:15 AM on Monday 24 Nov 2014 (Local Time) from K0E0 Reporting Station
Clear Clear  
Wind Chill: 21°   Ceiling: Unl
Heat Index: 35°   Visibility: 10mi
Dew Point:   Wind: 35mph
Humidity: 26%   Direction: 310°NW
Pressure: 30.08"   Gusts: 45mph
Location:  34.4464°N, 106.01°W
Report Text: K0E0 241615Z AUTO 31030G39KT 10SM CLR 02/M16 A3008 RMK AO2 T00181158
Loading
Personal Weather Stations






























Interactive Weather Map New forecast layout! Learn more

10-Day Weather Forecast

Advertisements
Track Severe Weather on mobile